Kinrikimaru — JL6545 — position and weather

sailwx.info

Track history (hours):
 
Tides and Currents Weather Stations Pressure Air Temp Water Temp Dewpoint Dewpoint Depression Visibility Wind Speed Wind Dir Waves Ship Positions

Kinrikimaru

Last reported at 2015-Jul-06 09:32 UTC. Time now 2015-Jul-07 00:16 UTC.
Position N 34°37' E 134°55'.

Length 76 m; draft 4 m.

Type: Cargo ship. MMSI: 431500615.

Date/timePositionNaut miles runAvg speedWind from/ knotsBaromVisibWave heightAir tempDewpointWater temp
2015-Jul-06 09:32N 34°37' E 134°55'10 9.8
2015-Jul-06 08:33N 34°36' E 135°06'1312.6
2015-Jul-06 07:33N 34°36' E 135°22'4 3.8
2015-Jul-06 06:33N 34°35' E 135°26'0 0.0
2015-Jul-06 05:31N 34°35' E 135°26'0 0.0
2015-Jul-06 04:30N 34°35' E 135°26'0 0.0
2015-Jul-06 03:22N 34°35' E 135°26'0 0.0
2015-Jul-06 02:24N 34°35' E 135°26'0 0.1
2015-Jul-06 00:32N 34°35' E 135°25'1010.2
2015-Jul-05 23:33N 34°35' E 135°13'1312.3
2015-Jul-05 22:32N 34°37' E 134°58'  
2015-Jul-03 12:13N 34°37' E 134°58'913.7
2015-Jul-03 11:33N 34°35' E 135°09'1212.2
2015-Jul-03 10:33N 34°36' E 135°23'3 2.5
2015-Jul-03 09:30N 34°35' E 135°26'0 0.0
2015-Jul-03 07:30N 34°35' E 135°26'0 0.0
2015-Jul-03 06:30N 34°35' E 135°26'0 0.0
2015-Jul-03 04:12N 34°35' E 135°26'0 0.0
2015-Jul-03 03:30N 34°35' E 135°26'0 0.0
2015-Jul-03 02:30N 34°35' E 135°26'4 4.0
2015-Jul-03 01:33N 34°36' E 135°21'1212.3
2015-Jul-03 00:33N 34°28' E 135°09'1312.4
2015-Jul-02 23:32N 34°18' E 135°00'1312.8
2015-Jul-02 22:31N 34°05' E 135°01'23410.2
2015-Jul-01 23:33N 35°04' E 139°36'1212.0
2015-Jul-01 22:33N 35°13' E 139°46'1211.8
2015-Jul-01 21:32N 35°23' E 139°40'0 0.0
2015-Jul-01 20:20N 35°23' E 139°40'0 0.0
2015-Jul-01 19:32N 35°23' E 139°40'0 0.0
2015-Jul-01 18:32N 35°23' E 139°40'0 0.0
2015-Jul-01 17:29N 35°23' E 139°40'0 0.0
2015-Jul-01 16:29N 35°23' E 139°40'0 0.0
2015-Jul-01 15:20N 35°23' E 139°40'0 0.1
2015-Jul-01 14:32N 35°23' E 139°40'0 0.0
2015-Jul-01 13:32N 35°23' E 139°40'0 0.1
2015-Jul-01 12:32N 35°23' E 139°40'0 0.1
2015-Jul-01 11:30N 35°23' E 139°40'0 0.0
2015-Jul-01 10:33N 35°23' E 139°40'0 0.0
2015-Jul-01 09:33N 35°23' E 139°40'0 0.0
2015-Jul-01 08:33N 35°23' E 139°40'0 0.0
2015-Jul-01 07:33N 35°23' E 139°40'0 0.1
2015-Jul-01 06:33N 35°23' E 139°40'0 0.0
2015-Jul-01 05:34N 35°23' E 139°40'0 0.0
2015-Jul-01 04:33N 35°23' E 139°40'0 0.0
2015-Jul-01 03:32N 35°23' E 139°40'0 0.1
2015-Jul-01 02:32N 35°23' E 139°40'0 0.0
2015-Jul-01 01:29N 35°23' E 139°40'0 0.0
2015-Jul-01 00:32N 35°23' E 139°40'0 0.0
2015-Jun-30 23:32N 35°23' E 139°40'0 0.0
2015-Jun-30 22:32N 35°23' E 139°40'0 0.0
2015-Jun-30 21:32N 35°23' E 139°40'0 0.0
2015-Jun-30 20:32N 35°23' E 139°40'2 1.9
2015-Jun-30 19:33N 35°22' E 139°42'1212.0
2015-Jun-30 18:33N 35°11' E 139°47'1312.7
2015-Jun-30 17:33N 34°58' E 139°43'1311.6
2015-Jun-30 16:29N 34°52' E 139°56'1212.5
2015-Jun-30 15:33N 34°58' E 140°08'2412.2
2015-Jun-30 13:33N 35°15' E 140°30'4410.5
2015-Jun-30 09:23N 35°57' E 140°45'4 4.9
2015-Jun-30 08:33N 35°54' E 140°41'0 0.0
2015-Jun-30 07:33N 35°54' E 140°41'0 0.0
2015-Jun-30 06:34N 35°54' E 140°41'0 0.0
2015-Jun-30 00:22N 35°54' E 140°41'0 0.0
2015-Jun-29 22:22N 35°54' E 140°41'0 0.6
2015-Jun-29 21:33N 35°54' E 140°41'4 0.7
2015-Jun-29 15:29N 35°58' E 140°44'3510.6
2015-Jun-29 12:08N 35°23' E 140°38'812.3
2015-Jun-29 11:29N 35°16' E 140°31'2311.9
2015-Jun-29 09:33N 34°60' E 140°12'1511.3
2015-Jun-29 08:15N 34°51' E 139°58'25111.0
2015-Jun-28 09:25N 34°01' E 134°59'1412.6
2015-Jun-28 08:20N 34°14' E 134°59'1011.1
2015-Jun-28 07:25N 34°24' E 135°03'1113.0
2015-Jun-28 06:33N 34°31' E 135°13'1110.7
2015-Jun-28 05:32N 34°35' E 135°25'0 0.1
2015-Jun-27 23:25N 34°35' E 135°26'3 3.2
2015-Jun-27 22:33N 34°33' E 135°23'2 0.1
2015-Jun-26 15:33N 34°31' E 135°24'0 0.0
2015-Jun-26 14:27N 34°31' E 135°24'  
Track history (hours):
 
Tides and Currents Weather Stations Pressure Air Temp Water Temp Dewpoint Dewpoint Depression Visibility Wind Speed Wind Dir Waves Ship Positions

Kinrikimaru

Last reported at 2015-Jul-06 09:32 UTC. Time now 2015-Jul-07 00:17 UTC.
Position N 34°37' E 134°55'.

Length 76 m; draft 4 m.

Type: Cargo ship. MMSI: 431500615.

Date/timePositionNaut miles runAvg speedWind from/ knotsBaromVisibWave heightAir tempDewpointWater temp
2015-Jul-06 09:32N 34°37' E 134°55'10 9.8
2015-Jul-06 08:33N 34°36' E 135°06'1312.6
2015-Jul-06 07:33N 34°36' E 135°22'4 3.8
2015-Jul-06 06:33N 34°35' E 135°26'0 0.0
2015-Jul-06 05:31N 34°35' E 135°26'0 0.0
2015-Jul-06 04:30N 34°35' E 135°26'0 0.0
2015-Jul-06 03:22N 34°35' E 135°26'0 0.0
2015-Jul-06 02:24N 34°35' E 135°26'0 0.1
2015-Jul-06 00:32N 34°35' E 135°25'1010.2
2015-Jul-05 23:33N 34°35' E 135°13'1312.3
2015-Jul-05 22:32N 34°37' E 134°58'  
2015-Jul-03 12:13N 34°37' E 134°58'913.7
2015-Jul-03 11:33N 34°35' E 135°09'1212.2
2015-Jul-03 10:33N 34°36' E 135°23'3 2.5
2015-Jul-03 09:30N 34°35' E 135°26'0 0.0
2015-Jul-03 07:30N 34°35' E 135°26'0 0.0
2015-Jul-03 06:30N 34°35' E 135°26'0 0.0
2015-Jul-03 04:12N 34°35' E 135°26'0 0.0
2015-Jul-03 03:30N 34°35' E 135°26'0 0.0
2015-Jul-03 02:30N 34°35' E 135°26'4 4.0
2015-Jul-03 01:33N 34°36' E 135°21'1212.3
2015-Jul-03 00:33N 34°28' E 135°09'1312.4
2015-Jul-02 23:32N 34°18' E 135°00'1312.8
2015-Jul-02 22:31N 34°05' E 135°01'23410.2
2015-Jul-01 23:33N 35°04' E 139°36'1212.0
2015-Jul-01 22:33N 35°13' E 139°46'1211.8
2015-Jul-01 21:32N 35°23' E 139°40'0 0.0
2015-Jul-01 20:20N 35°23' E 139°40'0 0.0
2015-Jul-01 19:32N 35°23' E 139°40'0 0.0
2015-Jul-01 18:32N 35°23' E 139°40'0 0.0
2015-Jul-01 17:29N 35°23' E 139°40'0 0.0
2015-Jul-01 16:29N 35°23' E 139°40'0 0.0
2015-Jul-01 15:20N 35°23' E 139°40'0 0.1
2015-Jul-01 14:32N 35°23' E 139°40'0 0.0
2015-Jul-01 13:32N 35°23' E 139°40'0 0.1
2015-Jul-01 12:32N 35°23' E 139°40'0 0.1
2015-Jul-01 11:30N 35°23' E 139°40'0 0.0
2015-Jul-01 10:33N 35°23' E 139°40'0 0.0
2015-Jul-01 09:33N 35°23' E 139°40'0 0.0
2015-Jul-01 08:33N 35°23' E 139°40'0 0.0
2015-Jul-01 07:33N 35°23' E 139°40'0 0.1
2015-Jul-01 06:33N 35°23' E 139°40'0 0.0
2015-Jul-01 05:34N 35°23' E 139°40'0 0.0
2015-Jul-01 04:33N 35°23' E 139°40'0 0.0
2015-Jul-01 03:32N 35°23' E 139°40'0 0.1
2015-Jul-01 02:32N 35°23' E 139°40'0 0.0
2015-Jul-01 01:29N 35°23' E 139°40'0 0.0
2015-Jul-01 00:32N 35°23' E 139°40'0 0.0
2015-Jun-30 23:32N 35°23' E 139°40'0 0.0
2015-Jun-30 22:32N 35°23' E 139°40'0 0.0
2015-Jun-30 21:32N 35°23' E 139°40'0 0.0
2015-Jun-30 20:32N 35°23' E 139°40'2 1.9
2015-Jun-30 19:33N 35°22' E 139°42'1212.0
2015-Jun-30 18:33N 35°11' E 139°47'1312.7
2015-Jun-30 17:33N 34°58' E 139°43'1311.6
2015-Jun-30 16:29N 34°52' E 139°56'1212.5
2015-Jun-30 15:33N 34°58' E 140°08'2412.2
2015-Jun-30 13:33N 35°15' E 140°30'4410.5
2015-Jun-30 09:23N 35°57' E 140°45'4 4.9
2015-Jun-30 08:33N 35°54' E 140°41'0 0.0
2015-Jun-30 07:33N 35°54' E 140°41'0 0.0
2015-Jun-30 06:34N 35°54' E 140°41'0 0.0
2015-Jun-30 00:22N 35°54' E 140°41'0 0.0
2015-Jun-29 22:22N 35°54' E 140°41'0 0.6
2015-Jun-29 21:33N 35°54' E 140°41'4 0.7
2015-Jun-29 15:29N 35°58' E 140°44'3510.6
2015-Jun-29 12:08N 35°23' E 140°38'812.3
2015-Jun-29 11:29N 35°16' E 140°31'2311.9
2015-Jun-29 09:33N 34°60' E 140°12'1511.3
2015-Jun-29 08:15N 34°51' E 139°58'25111.0
2015-Jun-28 09:25N 34°01' E 134°59'1412.6
2015-Jun-28 08:20N 34°14' E 134°59'1011.1
2015-Jun-28 07:25N 34°24' E 135°03'1113.0
2015-Jun-28 06:33N 34°31' E 135°13'1110.7
2015-Jun-28 05:32N 34°35' E 135°25'0 0.1
2015-Jun-27 23:25N 34°35' E 135°26'3 3.2
2015-Jun-27 22:33N 34°33' E 135°23'2 0.1
2015-Jun-26 15:33N 34°31' E 135°24'0 0.0
2015-Jun-26 14:27N 34°31' E 135°24'  

Dump ship's entire track history